createdAt,value
2022-09-15T00:02:15.414Z,100652.66
2022-09-15T00:06:17.980Z,100659.88
2022-09-15T00:10:19.725Z,100664.63
2022-09-15T00:14:21.468Z,100657.38
2022-09-15T00:18:23.487Z,100665.28
2022-09-15T00:22:26.336Z,100659.28
2022-09-15T00:26:29.995Z,100653.09
2022-09-15T00:30:31.799Z,100655.16
2022-09-15T00:34:33.634Z,100659.72
2022-09-15T00:38:36.490Z,100659.34
2022-09-15T00:42:38.376Z,100649.84
2022-09-15T00:46:42.774Z,100652.94
2022-09-15T00:50:49.675Z,100662.69
2022-09-15T00:54:54.350Z,100657.75
2022-09-15T00:59:01.585Z,100658.16
2022-09-15T01:03:04.218Z,100670.63
2022-09-15T01:07:07.661Z,100664.59
2022-09-15T01:11:09.595Z,100658.56
2022-09-15T01:15:11.947Z,100665.41
2022-09-15T01:19:16.360Z,100661.69
2022-09-15T01:23:53.409Z,100671.22
2022-09-15T01:28:30.383Z,100673.09
2022-09-15T01:33:02.517Z,100677.25
2022-09-15T01:37:13.153Z,100688.22
2022-09-15T01:41:25.550Z,100679.75
2022-09-15T01:45:31.194Z,100674.13
2022-09-15T01:49:50.698Z,100678.72
2022-09-15T01:53:53.897Z,100678.50
2022-09-15T01:57:55.563Z,100680.34
2022-09-15T02:02:23.007Z,100681.41
2022-09-15T02:06:36.106Z,100680.34
2022-09-15T02:10:37.779Z,100683.88
2022-09-15T02:15:01.140Z,100678.28
2022-09-15T02:19:10.257Z,100681.59
2022-09-15T02:23:28.819Z,100679.94
2022-09-15T02:27:34.076Z,100682.66
2022-09-15T02:31:39.565Z,100682.03
2022-09-15T02:35:42.318Z,100675.19
2022-09-15T02:39:49.588Z,100678.09
2022-09-15T02:43:51.464Z,100686.59
2022-09-15T02:47:53.204Z,100684.72
2022-09-15T02:51:55.042Z,100688.44
2022-09-15T02:55:58.062Z,100689.47
2022-09-15T03:00:15.037Z,100685.13
2022-09-15T03:04:16.799Z,100684.28
2022-09-15T03:08:18.475Z,100685.75
2022-09-15T03:12:20.112Z,100683.44
2022-09-15T03:16:22.165Z,100693.41
2022-09-15T03:20:30.400Z,100692.56
2022-09-15T03:24:32.098Z,100702.31
2022-09-15T03:28:33.842Z,100690.69
2022-09-15T03:32:36.115Z,100694.22
2022-09-15T03:36:38.352Z,100688.00
2022-09-15T03:40:40.288Z,100689.88
2022-09-15T03:44:42.083Z,100687.19
2022-09-15T03:48:43.860Z,100690.88
2022-09-15T03:52:45.500Z,100693.41
2022-09-15T03:56:49.136Z,100697.97
2022-09-15T04:00:50.924Z,100697.97
2022-09-15T04:04:52.658Z,100698.78
2022-09-15T04:08:55.137Z,100705.81
2022-09-15T04:12:57.309Z,100707.91
2022-09-15T04:16:59.043Z,100712.88
2022-09-15T04:21:02.050Z,100712.63
2022-09-15T04:25:04.136Z,100700.59
2022-09-15T04:29:12.358Z,100699.78
2022-09-15T04:33:13.919Z,100698.94
2022-09-15T04:37:15.610Z,100707.84
2022-09-15T04:41:18.779Z,100704.34
2022-09-15T04:45:20.450Z,100699.13
2022-09-15T04:49:22.110Z,100701.00
2022-09-15T04:53:23.889Z,100706.19
2022-09-15T04:57:25.692Z,100709.72
2022-09-15T05:01:30.072Z,100704.34
2022-09-15T05:05:34.519Z,100697.91
2022-09-15T05:09:36.186Z,100704.34
2022-09-15T05:13:39.754Z,100704.72
2022-09-15T05:17:41.418Z,100706.81
2022-09-15T05:21:43.273Z,100709.50
2022-09-15T05:25:54.581Z,100723.97
2022-09-15T05:30:09.962Z,100724.34
2022-09-15T05:34:17.954Z,100721.44
2022-09-15T05:38:19.858Z,100718.09
2022-09-15T05:42:21.497Z,100708.19
2022-09-15T05:46:26.156Z,100707.16
2022-09-15T05:50:27.965Z,100699.91
2022-09-15T05:54:29.637Z,100707.75
2022-09-15T05:58:32.657Z,100699.69
2022-09-15T06:02:34.498Z,100714.63
2022-09-15T06:06:36.197Z,100709.91
2022-09-15T06:10:37.928Z,100713.22
2022-09-15T06:14:39.626Z,100714.69
2022-09-15T06:18:42.285Z,100721.53
2022-09-15T06:22:47.290Z,100718.63
2022-09-15T06:26:48.954Z,100732.53
2022-09-15T06:30:51.799Z,100731.09
2022-09-15T06:34:53.450Z,100737.72
2022-09-15T06:38:55.554Z,100753.09
2022-09-15T06:42:57.259Z,100752.25
2022-09-15T06:46:58.986Z,100759.75
2022-09-15T06:51:01.596Z,100760.78
2022-09-15T06:55:03.967Z,100766.81
2022-09-15T06:59:06.239Z,100770.75
2022-09-15T07:03:08.107Z,100779.88
2022-09-15T07:07:09.933Z,100795.00
2022-09-15T07:11:11.610Z,100802.84
2022-09-15T07:15:13.468Z,100797.28
2022-09-15T07:19:15.231Z,100806.19
2022-09-15T07:23:18.193Z,100792.09
2022-09-15T07:27:19.933Z,100803.72
2022-09-15T07:31:23.676Z,100809.94
2022-09-15T07:35:25.422Z,100802.50
2022-09-15T07:39:27.048Z,100800.84
2022-09-15T07:43:28.715Z,100794.63
2022-09-15T07:47:30.377Z,100803.78
2022-09-15T07:51:32.313Z,100802.34
2022-09-15T07:55:33.989Z,100814.59
2022-09-15T07:59:40.569Z,100819.19
2022-09-15T08:03:45.475Z,100836.59
2022-09-15T08:07:47.456Z,100848.63
2022-09-15T08:11:49.710Z,100854.63
2022-09-15T08:15:52.294Z,100868.84
2022-09-15T08:19:54.137Z,100886.97
2022-09-15T08:23:58.426Z,100883.75
2022-09-15T08:28:00.199Z,100882.25
2022-09-15T08:32:02.499Z,100894.41
2022-09-15T08:36:07.561Z,100896.53
2022-09-15T08:40:22.524Z,100904.47
2022-09-15T08:44:46.581Z,100901.75
2022-09-15T08:49:02.986Z,100907.31
2022-09-15T08:53:14.118Z,100894.72
2022-09-15T08:57:22.593Z,100896.03
2022-09-15T09:01:42.575Z,100889.22
2022-09-15T09:05:58.380Z,100895.34
2022-09-15T09:09:59.999Z,100899.53
2022-09-15T09:14:23.681Z,100892.50
2022-09-15T09:19:03.768Z,100897.94
2022-09-15T09:23:12.898Z,100906.22
2022-09-15T09:27:20.689Z,100899.63
2022-09-15T09:31:24.876Z,100892.00
2022-09-15T09:35:43.201Z,100889.28
2022-09-15T09:39:46.854Z,100891.00
2022-09-15T09:43:49.399Z,100869.84
2022-09-15T09:47:51.051Z,100880.03
2022-09-15T09:51:55.266Z,100880.06
2022-09-15T09:56:18.144Z,100885.25
2022-09-15T10:00:37.900Z,100881.91
2022-09-15T10:04:41.982Z,100880.63
2022-09-15T10:08:59.001Z,100885.22
2022-09-15T10:13:03.247Z,100883.75
2022-09-15T10:17:17.243Z,100876.47
2022-09-15T10:21:23.742Z,100877.50
2022-09-15T10:25:44.168Z,100880.59
2022-09-15T10:29:49.798Z,100887.25
2022-09-15T10:33:52.747Z,100885.19
2022-09-15T10:38:12.215Z,100888.94
2022-09-15T10:42:19.673Z,100891.44
2022-09-15T10:47:03.017Z,100884.75
2022-09-15T10:51:17.376Z,100884.16
2022-09-15T10:55:52.974Z,100887.28
2022-09-15T11:00:10.053Z,100874.19
2022-09-15T11:04:53.502Z,100886.22
2022-09-15T11:09:17.483Z,100897.25
2022-09-15T11:13:25.737Z,100891.59
2022-09-15T11:17:46.279Z,100895.50
2022-09-15T11:21:54.600Z,100895.09
2022-09-15T11:26:04.920Z,100889.69
2022-09-15T11:30:06.901Z,100906.16
2022-09-15T11:34:23.639Z,100897.81
2022-09-15T11:38:43.103Z,100903.84
2022-09-15T11:43:00.656Z,100904.69
2022-09-15T11:47:05.243Z,100888.69
2022-09-15T11:51:07.621Z,100908.22
2022-09-15T11:55:24.517Z,100913.03
2022-09-15T11:59:39.239Z,100914.88
2022-09-15T12:03:52.843Z,100914.69
2022-09-15T12:08:13.075Z,100915.94
2022-09-15T12:12:18.762Z,100914.47
2022-09-15T12:16:21.440Z,100919.28
2022-09-15T12:20:29.742Z,100912.63
2022-09-15T12:24:40.574Z,100914.47
2022-09-15T12:28:54.716Z,100909.72
2022-09-15T12:32:56.565Z,100908.06
2022-09-15T12:37:26.207Z,100913.00
2022-09-15T12:41:29.213Z,100918.03
2022-09-15T12:45:34.531Z,100919.66
2022-09-15T12:49:43.505Z,100933.38
2022-09-15T12:54:07.537Z,100929.25
2022-09-15T12:58:15.790Z,100936.72
2022-09-15T13:02:46.978Z,100930.50
2022-09-15T13:07:16.755Z,100938.59
2022-09-15T13:11:25.558Z,100952.09
2022-09-15T13:15:28.066Z,100935.69
2022-09-15T13:19:44.072Z,100938.00
2022-09-15T13:23:51.080Z,100930.50
2022-09-15T13:27:55.641Z,100945.44
2022-09-15T13:32:20.280Z,100932.59
2022-09-15T13:41:40.246Z,100933.81
2022-09-15T13:46:20.502Z,100932.59
2022-09-15T13:50:32.886Z,100925.50
2022-09-15T13:54:34.604Z,100921.75
2022-09-15T14:03:03.333Z,100926.34
2022-09-15T14:07:05.127Z,100924.28
2022-09-15T14:11:11.194Z,100932.16
2022-09-15T14:15:18.387Z,100941.53
2022-09-15T14:19:36.808Z,100940.91
2022-09-15T14:23:45.213Z,100933.44
2022-09-15T14:27:49.854Z,100931.75
2022-09-15T14:31:51.986Z,100939.00
2022-09-15T14:35:54.840Z,100929.44
2022-09-15T14:39:58.932Z,100935.91
2022-09-15T14:44:00.765Z,100932.38
2022-09-15T14:48:07.313Z,100930.09
2022-09-15T14:52:29.153Z,100928.00
2022-09-15T14:56:35.317Z,100950.03
2022-09-15T15:01:02.316Z,100947.13
2022-09-15T15:05:46.023Z,100943.16
2022-09-15T15:09:52.811Z,100940.69
2022-09-15T15:13:55.155Z,100950.84
2022-09-15T15:17:57.439Z,100955.00
2022-09-15T15:22:14.272Z,100960.38
2022-09-15T15:26:35.967Z,100969.91
2022-09-15T15:30:47.228Z,100971.16
2022-09-15T15:35:19.006Z,100973.22
2022-09-15T15:39:24.929Z,100974.88
2022-09-15T15:43:27.585Z,100981.97
2022-09-15T15:47:36.284Z,100971.38
2022-09-15T15:51:37.884Z,100972.63
2022-09-15T15:55:41.853Z,100983.81
2022-09-15T15:59:43.510Z,100984.00
2022-09-15T16:03:45.245Z,100973.03
2022-09-15T16:07:49.637Z,100983.81
2022-09-15T16:11:51.403Z,100983.56
2022-09-15T16:15:54.156Z,100982.25
2022-09-15T16:19:56.037Z,100994.25
2022-09-15T16:23:57.780Z,100981.38
2022-09-15T16:28:00.580Z,100974.72
2022-09-15T16:32:03.630Z,100976.97
2022-09-15T16:36:08.930Z,100978.81
2022-09-15T16:40:10.714Z,100975.50
2022-09-15T16:44:19.861Z,100974.19
2022-09-15T16:48:21.934Z,100974.81
2022-09-15T16:52:23.650Z,100974.16
2022-09-15T16:56:25.523Z,100984.06
2022-09-15T17:00:28.599Z,100975.50
2022-09-15T17:04:30.414Z,100971.53
2022-09-15T17:08:33.274Z,100981.03
2022-09-15T17:12:36.362Z,100978.34
2022-09-15T17:16:38.379Z,100989.50
2022-09-15T17:20:40.039Z,100967.56
2022-09-15T17:24:41.841Z,100990.97
2022-09-15T17:28:43.548Z,100976.78
2022-09-15T17:32:45.417Z,100983.66
2022-09-15T17:36:47.123Z,100982.31
2022-09-15T17:40:50.632Z,100986.38
2022-09-15T17:44:52.396Z,100984.22
2022-09-15T17:48:54.283Z,100987.56
2022-09-15T17:52:56.550Z,100994.81
2022-09-15T17:56:58.210Z,100993.56
2022-09-15T18:01:00.417Z,100987.00
2022-09-15T18:05:02.127Z,100992.16
2022-09-15T18:09:03.854Z,100995.72
2022-09-15T18:13:06.337Z,100996.34
2022-09-15T18:17:09.544Z,100999.50
2022-09-15T18:21:25.883Z,100997.63
2022-09-15T18:25:33.648Z,100990.59
2022-09-15T18:29:35.366Z,100994.69
2022-09-15T18:33:37.020Z,100996.66
2022-09-15T18:37:38.993Z,101009.25
2022-09-15T18:41:40.918Z,101003.25
2022-09-15T18:45:42.910Z,101003.25
2022-09-15T18:49:44.633Z,101011.50
2022-09-15T18:53:49.752Z,101018.34
2022-09-15T18:57:53.775Z,101032.25
2022-09-15T19:01:55.512Z,101047.56
2022-09-15T19:06:05.418Z,101035.66
2022-09-15T19:10:07.812Z,101031.75
2022-09-15T19:14:09.565Z,101030.66
2022-09-15T19:18:11.268Z,101021.31
2022-09-15T19:22:13.186Z,101027.25
2022-09-15T19:26:17.021Z,101017.50
2022-09-15T19:30:18.789Z,101021.41
2022-09-15T19:34:21.206Z,101008.09
2022-09-15T19:38:22.889Z,101017.69
2022-09-15T19:42:24.598Z,101021.00
2022-09-15T19:46:27.245Z,101030.56
2022-09-15T19:50:29.179Z,101026.84
2022-09-15T19:54:31.194Z,101024.00
2022-09-15T19:58:33.297Z,101025.66
2022-09-15T20:02:34.982Z,101031.84
2022-09-15T20:06:37.033Z,101031.84
2022-09-15T20:10:39.653Z,101050.03
2022-09-15T20:14:41.528Z,101034.97
2022-09-15T20:18:46.735Z,101026.56
2022-09-15T20:22:48.449Z,101025.63
2022-09-15T20:26:54.863Z,101026.81
2022-09-15T20:31:04.322Z,101021.00
2022-09-15T20:35:06.402Z,101034.25
2022-09-15T20:39:13.099Z,101045.00
2022-09-15T20:43:15.018Z,101066.84
2022-09-15T20:47:16.762Z,101049.50
2022-09-15T20:51:26.205Z,101049.22
2022-09-15T20:55:27.948Z,101045.59
2022-09-15T20:59:29.614Z,101058.38
2022-09-15T21:03:31.360Z,101063.91
2022-09-15T21:07:33.015Z,101056.03
2022-09-15T21:11:34.899Z,101054.38
2022-09-15T21:15:36.577Z,101048.69
2022-09-15T21:19:40.225Z,101042.03
2022-09-15T21:23:53.281Z,101044.06
2022-09-15T21:27:55.074Z,101032.50
2022-09-15T21:31:57.400Z,101036.84
2022-09-15T21:36:08.231Z,101034.16
2022-09-15T21:40:10.789Z,101040.38
2022-09-15T21:44:12.550Z,101044.06
2022-09-15T21:48:14.406Z,101054.81
2022-09-15T21:52:16.108Z,101062.19
2022-09-15T21:56:17.927Z,101067.75
2022-09-15T22:00:19.595Z,101062.72
2022-09-15T22:04:21.337Z,101059.91
2022-09-15T22:08:23.111Z,101052.06
2022-09-15T22:12:24.861Z,101051.03
2022-09-15T22:16:26.905Z,101050.00
2022-09-15T22:20:29.508Z,101046.16
2022-09-15T22:24:31.203Z,101028.19
2022-09-15T22:28:32.995Z,101022.34
2022-09-15T22:32:35.355Z,101027.72
2022-09-15T22:36:37.161Z,101024.88
2022-09-15T22:40:39.034Z,101022.34
2022-09-15T22:44:40.750Z,101026.06
2022-09-15T22:48:43.659Z,101018.69
2022-09-15T22:52:45.635Z,101014.97
2022-09-15T22:56:47.337Z,101017.66
2022-09-15T23:00:49.294Z,101017.31
2022-09-15T23:04:51.334Z,101014.97
2022-09-15T23:08:58.154Z,101026.88
2022-09-15T23:12:59.915Z,101021.03
2022-09-15T23:17:01.773Z,101026.41
2022-09-15T23:21:09.244Z,101023.56
2022-09-15T23:25:10.938Z,101025.75
2022-09-15T23:29:12.632Z,101025.81
2022-09-15T23:33:14.325Z,101022.66
2022-09-15T23:37:16.115Z,101014.13
2022-09-15T23:41:18.635Z,101019.19
2022-09-15T23:45:20.301Z,101008.81
2022-09-15T23:49:22.035Z,101007.81
2022-09-15T23:53:24.261Z,101005.78
2022-09-15T23:57:25.942Z,101016.16
